Time;durP1;ratioP1;P1;durP2;ratioP2;P2;SDS_P1;SDS_P2;PMS_P1;PMS_P2;Temp;Humidity;BMP_temperature;BMP_pressure;BME280_temperature;BME280_humidity;BME280_pressure;Samples;Min_cycle;Max_cycle;Signal;HPM_P1;HPM_P2
2020/12/11 00:00:49;;;;;;;39.90;20.25;;;-0.80;99.90;;;;;;5084235;28;20497;-64
2020/12/11 00:03:15;;;;;;;58.35;23.90;;;-0.80;99.90;;;;;;5090153;28;20733;-64
2020/12/11 00:05:42;;;;;;;47.22;22.83;;;-0.20;99.90;;;;;;5087254;28;20203;-64
2020/12/11 00:08:09;;;;;;;38.13;21.90;;;-0.70;99.90;;;;;;5080075;28;20206;-64
2020/12/11 00:10:36;;;;;;;43.20;19.98;;;-0.70;99.90;;;;;;5083476;28;20203;-64
2020/12/11 00:13:02;;;;;;;40.38;20.08;;;-0.10;99.90;;;;;;5083722;28;20207;-64
2020/12/11 00:15:29;;;;;;;44.42;21.85;;;-0.70;99.90;;;;;;5080853;28;20218;-64
2020/12/11 00:17:56;;;;;;;41.20;19.45;;;-0.70;99.90;;;;;;5082507;28;20269;-64
2020/12/11 00:20:23;;;;;;;59.00;23.02;;;-0.10;99.90;;;;;;5083146;28;20274;-64
2020/12/11 00:22:50;;;;;;;42.67;20.20;;;-0.80;99.90;;;;;;5084963;28;20234;-63
2020/12/11 00:25:16;;;;;;;37.60;18.45;;;-0.80;99.90;;;;;;5086192;28;20199;-66
2020/12/11 00:27:43;;;;;;;40.30;20.50;;;-0.40;99.90;;;;;;5080399;28;20207;-64
2020/12/11 00:30:09;;;;;;;37.08;20.55;;;-0.80;99.90;;;;;;5084180;28;20223;-64
2020/12/11 00:32:36;;;;;;;46.25;17.88;;;-0.80;99.90;;;;;;5083610;28;20213;-64
2020/12/11 00:35:06;;;;;;;41.25;19.85;;;-0.80;99.90;;;;;;5083156;28;20532;-64
2020/12/11 00:37:33;;;;;;;45.42;22.23;;;-0.80;99.90;;;;;;5084811;28;20224;-63
2020/12/11 00:39:59;;;;;;;39.08;21.27;;;-0.30;99.90;;;;;;5088138;28;20217;-64
2020/12/11 00:42:26;;;;;;;33.50;20.08;;;-0.20;99.90;;;;;;5079967;28;20203;-64
2020/12/11 00:44:53;;;;;;;33.53;18.42;;;-0.10;99.90;;;;;;5082499;28;20213;-65
2020/12/11 00:47:19;;;;;;;36.00;18.05;;;-0.10;99.90;;;;;;5079712;28;20214;-65
2020/12/11 00:49:46;;;;;;;53.58;23.48;;;-0.70;99.90;;;;;;5082611;28;20265;-66
2020/12/11 00:52:12;;;;;;;37.78;20.48;;;-0.70;99.90;;;;;;5080277;28;20389;-66
2020/12/11 00:54:39;;;;;;;46.15;20.30;;;-0.70;99.90;;;;;;5083695;28;20784;-64
2020/12/11 00:57:06;;;;;;;41.63;18.67;;;0.00;99.90;;;;;;5082769;28;20716;-64
2020/12/11 00:59:32;;;;;;;40.13;19.48;;;-0.70;99.90;;;;;;5082137;28;20439;-64
2020/12/11 01:01:59;;;;;;;38.53;19.42;;;-0.70;99.90;;;;;;5085607;28;20207;-64
2020/12/11 01:04:25;;;;;;;41.20;20.13;;;-0.80;99.90;;;;;;5084687;28;20250;-64
2020/12/11 01:06:52;;;;;;;43.13;20.88;;;-0.80;99.90;;;;;;5087350;28;20209;-64
2020/12/11 01:09:19;;;;;;;34.13;19.40;;;-0.70;99.90;;;;;;5082367;28;20206;-65
2020/12/11 01:11:46;;;;;;;36.95;17.88;;;-0.70;99.90;;;;;;5088594;28;20203;-63
2020/12/11 01:14:12;;;;;;;36.53;17.50;;;-0.70;99.90;;;;;;5079411;28;20211;-64
2020/12/11 01:16:39;;;;;;;34.50;17.50;;;-0.70;99.90;;;;;;5079987;28;20203;-64
2020/12/11 01:19:07;;;;;;;43.40;20.83;;;0.10;99.90;;;;;;5078410;28;20235;-63
2020/12/11 01:21:33;;;;;;;40.35;19.80;;;-0.80;99.90;;;;;;5090179;28;20367;-64
2020/12/11 01:24:00;;;;;;;42.88;18.88;;;-0.80;99.90;;;;;;5085929;28;20233;-65
2020/12/11 01:26:26;;;;;;;29.55;17.25;;;-0.70;99.90;;;;;;5082681;28;20404;-64
2020/12/11 01:28:54;;;;;;;35.60;17.92;;;0.00;99.90;;;;;;5084227;28;20523;-64
2020/12/11 01:31:21;;;;;;;38.55;17.45;;;-0.80;99.90;;;;;;5081315;28;20223;-64
2020/12/11 01:33:49;;;;;;;46.53;19.98;;;-0.80;99.90;;;;;;5079619;28;20199;-65
2020/12/11 01:36:26;;;;;;;39.00;18.13;;;-0.30;99.90;;;;;;5079852;28;20207;-64
2020/12/11 01:38:53;;;;;;;35.63;18.02;;;-0.80;99.90;;;;;;5086018;28;20212;-64
2020/12/11 01:41:20;;;;;;;29.48;16.15;;;-0.80;99.90;;;;;;5085902;28;20207;-64
2020/12/11 01:43:47;;;;;;;31.90;17.10;;;-0.70;99.90;;;;;;5087501;28;20226;-64
2020/12/11 01:46:16;;;;;;;43.80;17.88;;;-0.70;99.90;;;;;;5081895;28;20206;-64
2020/12/11 01:48:44;;;;;;;39.22;17.40;;;-0.80;99.90;;;;;;5085419;28;20203;-65
2020/12/11 01:51:14;;;;;;;31.95;15.07;;;-0.80;99.90;;;;;;5085022;28;20256;-64
2020/12/11 01:53:44;;;;;;;32.45;17.40;;;-0.20;99.90;;;;;;5080065;28;20207;-64
2020/12/11 01:56:15;;;;;;;34.05;19.65;;;-0.60;99.90;;;;;;5081551;28;20225;-63
2020/12/11 01:58:47;;;;;;;34.63;17.55;;;-0.60;99.90;;;;;;5081166;28;20225;-62
2020/12/11 02:01:16;;;;;;;34.20;16.27;;;-0.60;99.90;;;;;;5082218;28;20202;-62
2020/12/11 02:03:44;;;;;;;36.38;20.08;;;0.00;99.90;;;;;;5080945;28;20233;-63
2020/12/11 02:06:11;;;;;;;33.22;17.50;;;-0.60;99.90;;;;;;5078141;28;20203;-62
2020/12/11 02:08:38;;;;;;;39.45;18.38;;;-0.60;99.90;;;;;;5084262;28;20210;-62
2020/12/11 02:11:15;;;;;;;34.42;18.52;;;0.00;99.90;;;;;;5083952;28;20224;-61
2020/12/11 02:13:42;;;;;;;43.35;19.45;;;-0.70;99.90;;;;;;5082313;28;20202;-62
2020/12/11 02:16:08;;;;;;;43.95;19.08;;;-0.30;99.90;;;;;;5083856;28;20210;-61
2020/12/11 02:18:35;;;;;;;35.85;19.20;;;-0.70;99.90;;;;;;5081213;28;20238;-61
2020/12/11 02:21:02;;;;;;;32.92;20.52;;;-0.60;99.90;;;;;;5079159;28;20527;-61
2020/12/11 02:23:28;;;;;;;27.38;16.95;;;-0.70;99.90;;;;;;5078764;28;20248;-62
2020/12/11 02:25:55;;;;;;;49.50;17.80;;;-0.70;99.90;;;;;;5086118;28;20243;-61
2020/12/11 02:28:21;;;;;;;32.60;16.75;;;-0.80;99.90;;;;;;5078125;28;20417;-62
2020/12/11 02:30:48;;;;;;;36.03;19.17;;;0.00;99.90;;;;;;5082124;28;20279;-61
2020/12/11 02:33:14;;;;;;;38.20;19.42;;;-0.70;99.90;;;;;;5083533;28;20218;-62
2020/12/11 02:35:41;;;;;;;38.25;18.92;;;-0.70;99.90;;;;;;5080967;28;20419;-62
2020/12/11 02:38:09;;;;;;;40.72;19.63;;;0.00;99.90;;;;;;5083154;28;20390;-61
2020/12/11 02:40:43;;;;;;;38.88;19.88;;;-0.50;99.90;;;;;;5090771;28;20294;-63
2020/12/11 02:43:09;;;;;;;37.50;17.73;;;-0.70;99.90;;;;;;5078675;28;20268;-65
2020/12/11 02:45:36;;;;;;;37.30;19.48;;;-0.70;99.90;;;;;;5081158;28;20740;-63
2020/12/11 02:48:03;;;;;;;30.83;17.35;;;-0.70;99.90;;;;;;5079945;28;20271;-62
2020/12/11 02:50:29;;;;;;;47.75;18.95;;;-0.60;99.90;;;;;;5086153;28;20205;-62
2020/12/11 02:52:56;;;;;;;33.65;19.33;;;-0.70;99.90;;;;;;5080535;28;20218;-62
2020/12/11 02:55:22;;;;;;;29.55;19.40;;;-0.70;99.90;;;;;;5078337;28;20217;-62
2020/12/11 02:57:49;;;;;;;35.70;21.25;;;-0.60;99.90;;;;;;5082902;28;20679;-63
2020/12/11 03:00:15;;;;;;;40.75;21.23;;;-0.60;99.90;;;;;;5082213;28;20216;-63
2020/12/11 03:02:42;;;;;;;42.33;21.17;;;-0.60;99.90;;;;;;5081766;28;20194;-62
2020/12/11 03:05:09;;;;;;;32.83;18.05;;;-0.70;99.90;;;;;;5080820;28;20202;-61
2020/12/11 03:07:35;;;;;;;39.63;21.25;;;-0.10;99.90;;;;;;5080488;28;20202;-61
2020/12/11 03:10:03;;;;;;;38.05;19.73;;;-0.70;99.90;;;;;;5085958;28;20366;-61
2020/12/11 03:12:30;;;;;;;36.50;19.55;;;-0.30;99.90;;;;;;5081706;28;20203;-61
2020/12/11 03:14:56;;;;;;;38.97;19.08;;;0.10;99.90;;;;;;5083187;28;20220;-60
2020/12/11 03:17:23;;;;;;;41.47;19.20;;;-0.10;99.90;;;;;;5084177;28;20516;-61
2020/12/11 03:19:50;;;;;;;33.92;19.50;;;-0.70;99.90;;;;;;5084601;28;20576;-61
2020/12/11 03:22:17;;;;;;;40.10;19.83;;;-0.70;99.90;;;;;;5081877;28;20405;-61
2020/12/11 03:24:43;;;;;;;37.10;17.98;;;-0.80;99.90;;;;;;5090737;28;20234;-61
2020/12/11 03:27:10;;;;;;;44.63;19.52;;;-0.80;99.90;;;;;;5086656;28;20210;-62
2020/12/11 03:29:37;;;;;;;49.17;19.60;;;-0.70;99.90;;;;;;5087807;28;20216;-62
2020/12/11 03:32:04;;;;;;;40.92;17.67;;;-0.80;99.90;;;;;;5085482;28;20248;-62
2020/12/11 03:34:31;;;;;;;35.35;22.23;;;-0.20;99.90;;;;;;5089562;28;20198;-61
2020/12/11 03:36:57;;;;;;;38.17;19.23;;;-0.80;99.90;;;;;;5084964;28;20199;-61
2020/12/11 03:39:24;;;;;;;43.80;20.08;;;-0.80;99.90;;;;;;5088347;28;20212;-61
2020/12/11 03:41:53;;;;;;;43.50;20.77;;;-0.70;99.90;;;;;;5082428;28;20211;-62
2020/12/11 03:44:20;;;;;;;38.00;21.95;;;-0.70;99.90;;;;;;5079477;28;20775;-62
2020/12/11 03:46:47;;;;;;;57.28;23.38;;;0.00;99.90;;;;;;5080610;28;20370;-62
2020/12/11 03:49:14;;;;;;;38.20;21.10;;;-0.70;99.90;;;;;;5083993;28;20272;-61
2020/12/11 03:51:41;;;;;;;42.45;23.25;;;-0.70;99.90;;;;;;5081067;28;20274;-62
2020/12/11 03:54:07;;;;;;;40.90;21.50;;;-0.70;99.90;;;;;;5081997;28;20238;-62
2020/12/11 03:56:34;;;;;;;50.30;24.83;;;-0.70;99.90;;;;;;5088942;28;20203;-61
2020/12/11 03:59:00;;;;;;;41.55;20.98;;;-0.60;99.90;;;;;;5088380;28;20535;-61
2020/12/11 04:01:27;;;;;;;46.33;22.55;;;-0.40;99.90;;;;;;5087135;28;20236;-62
2020/12/11 04:03:55;;;;;;;38.67;18.83;;;-0.50;99.90;;;;;;5082569;28;20293;-62
2020/12/11 04:06:21;;;;;;;48.83;22.60;;;-0.30;99.90;;;;;;5080877;28;20206;-62
2020/12/11 04:08:48;;;;;;;43.65;19.08;;;0.10;99.90;;;;;;5086471;28;20209;-62
2020/12/11 04:11:15;;;;;;;50.95;25.83;;;-0.60;99.90;;;;;;5087713;28;20226;-62
2020/12/11 04:13:42;;;;;;;44.35;20.83;;;-0.70;99.90;;;;;;5083341;28;20222;-62
2020/12/11 04:16:11;;;;;;;39.63;21.58;;;-0.70;99.90;;;;;;5083576;28;20486;-62
2020/12/11 04:18:38;;;;;;;37.10;16.38;;;-0.70;99.90;;;;;;5084599;28;20235;-62
2020/12/11 04:21:09;;;;;;;39.90;20.23;;;-0.60;99.90;;;;;;5080578;28;20243;-62
2020/12/11 04:23:35;;;;;;;33.83;17.15;;;-0.60;99.90;;;;;;5081763;28;20231;-62
2020/12/11 04:26:02;;;;;;;41.35;20.23;;;-0.60;99.90;;;;;;5081608;28;20215;-62
2020/12/11 04:28:28;;;;;;;38.05;17.90;;;-0.70;99.90;;;;;;5086090;28;20224;-62
2020/12/11 04:30:55;;;;;;;45.03;18.95;;;-0.70;99.90;;;;;;5080901;28;20262;-63
2020/12/11 04:33:21;;;;;;;39.92;19.17;;;-0.70;99.90;;;;;;5082778;28;20282;-62
2020/12/11 04:35:49;;;;;;;44.05;18.75;;;-0.70;99.90;;;;;;5083554;28;20203;-62
2020/12/11 04:38:16;;;;;;;44.75;19.52;;;-0.60;99.90;;;;;;5085650;28;20273;-61
2020/12/11 04:40:43;;;;;;;36.15;18.50;;;-0.70;99.90;;;;;;5087175;28;20207;-61
2020/12/11 04:43:12;;;;;;;50.05;21.98;;;-0.40;99.90;;;;;;5084579;28;20253;-61
2020/12/11 04:45:39;;;;;;;35.03;19.83;;;-0.70;99.90;;;;;;5081881;28;20195;-61
2020/12/11 04:48:10;;;;;;;39.38;21.40;;;-0.60;99.90;;;;;;5085714;28;20203;-63
2020/12/11 04:50:37;;;;;;;43.28;20.75;;;-0.70;99.90;;;;;;5080348;28;20591;-62
2020/12/11 04:53:04;;;;;;;34.88;17.20;;;-0.80;99.90;;;;;;5083073;28;20210;-61
2020/12/11 04:55:35;;;;;;;47.95;20.83;;;-0.70;99.90;;;;;;5083424;28;20282;-62
2020/12/11 04:58:05;;;;;;;39.35;20.30;;;-0.70;99.90;;;;;;5084164;28;20227;-62
2020/12/11 05:00:32;;;;;;;42.92;21.95;;;-0.50;99.90;;;;;;5083159;28;20203;-61
2020/12/11 05:03:00;;;;;;;53.90;24.70;;;-0.60;99.90;;;;;;5085290;28;20207;-62
2020/12/11 05:05:27;;;;;;;44.53;20.58;;;-0.50;99.90;;;;;;5082178;28;20393;-62
2020/12/11 05:07:53;;;;;;;53.50;23.63;;;-0.60;99.90;;;;;;5082540;28;20248;-62
2020/12/11 05:10:20;;;;;;;42.78;20.13;;;-0.50;99.90;;;;;;5083160;28;20207;-62
2020/12/11 05:12:46;;;;;;;47.78;21.20;;;-0.20;99.90;;;;;;5080556;28;20211;-62
2020/12/11 05:15:18;;;;;;;42.88;19.52;;;-0.50;99.90;;;;;;5082042;28;20238;-61
2020/12/11 05:17:44;;;;;;;61.10;26.73;;;-0.60;99.90;;;;;;5080608;28;20221;-61
2020/12/11 05:20:12;;;;;;;46.00;22.73;;;0.10;99.90;;;;;;5088043;28;20384;-61
2020/12/11 05:22:40;;;;;;;49.53;24.67;;;-0.60;99.90;;;;;;5081618;28;20497;-61
2020/12/11 05:25:15;;;;;;;49.38;23.13;;;-0.50;99.90;;;;;;5088908;28;20301;-61
2020/12/11 05:27:44;;;;;;;44.08;23.85;;;-0.40;99.90;;;;;;5081861;28;20206;-61
2020/12/11 05:30:14;;;;;;;55.83;22.75;;;-0.50;99.90;;;;;;5083235;28;20297;-61
2020/12/11 05:32:40;;;;;;;53.28;24.65;;;-0.60;99.90;;;;;;5081033;28;20239;-61
2020/12/11 05:35:21;;;;;;;42.75;24.67;;;-0.60;99.90;;;;;;5082055;28;20226;-62
2020/12/11 05:38:03;;;;;;;51.95;25.60;;;-0.50;99.90;;;;;;5081141;28;20237;-62
2020/12/11 05:40:40;;;;;;;40.13;21.58;;;-0.60;99.90;;;;;;5081799;28;20225;-61
2020/12/11 05:43:23;;;;;;;47.67;23.08;;;-0.60;99.90;;;;;;5079732;28;20422;-61
2020/12/11 05:45:55;;;;;;;66.55;26.45;;;-0.60;99.90;;;;;;5081712;28;20210;-62
2020/12/11 05:48:26;;;;;;;49.67;23.58;;;-0.60;99.90;;;;;;5080420;28;20269;-61
2020/12/11 05:50:53;;;;;;;53.60;24.10;;;-0.60;99.90;;;;;;5080794;28;20206;-61
2020/12/11 05:53:20;;;;;;;49.65;23.45;;;0.40;99.90;;;;;;5081750;28;20207;-61
2020/12/11 05:55:48;;;;;;;50.97;25.58;;;-0.20;99.90;;;;;;5081167;28;20298;-61
2020/12/11 05:58:17;;;;;;;48.90;26.42;;;-0.50;99.90;;;;;;5086724;28;20203;-62
2020/12/11 06:00:44;;;;;;;50.03;26.05;;;-0.40;99.90;;;;;;5082690;28;20206;-60
2020/12/11 06:03:11;;;;;;;52.47;23.23;;;-0.50;99.90;;;;;;5079706;28;20227;-61
2020/12/11 06:05:39;;;;;;;46.08;23.23;;;-0.50;99.90;;;;;;5081134;28;20207;-62
2020/12/11 06:08:10;;;;;;;55.33;24.88;;;-0.40;99.90;;;;;;5086318;28;20370;-61
2020/12/11 06:10:41;;;;;;;53.83;28.02;;;-0.50;99.90;;;;;;5082991;28;20195;-62
2020/12/11 06:13:08;;;;;;;57.55;24.52;;;-0.50;99.90;;;;;;5080367;28;20374;-62
2020/12/11 06:15:40;;;;;;;67.03;25.50;;;-0.60;99.90;;;;;;5081322;28;20205;-61
2020/12/11 06:18:16;;;;;;;46.03;25.70;;;0.20;99.90;;;;;;5078967;28;20269;-62
2020/12/11 06:20:47;;;;;;;44.05;22.38;;;-0.50;99.90;;;;;;5077769;28;20211;-62
2020/12/11 06:23:29;;;;;;;44.47;24.25;;;-0.50;99.90;;;;;;5090770;28;20226;-61
2020/12/11 06:25:58;;;;;;;42.80;22.02;;;-0.50;99.90;;;;;;5079536;28;20278;-60
2020/12/11 06:28:42;;;;;;;44.38;22.48;;;-0.50;99.90;;;;;;5089943;28;20753;-61
2020/12/11 06:31:14;;;;;;;53.20;24.25;;;-0.50;99.90;;;;;;5085553;28;20238;-61
2020/12/11 06:33:47;;;;;;;64.03;23.23;;;-0.50;99.90;;;;;;5080225;28;20207;-61
2020/12/11 06:36:14;;;;;;;43.85;21.10;;;-0.50;99.90;;;;;;5090752;28;20259;-61
2020/12/11 06:38:55;;;;;;;52.15;22.30;;;-0.40;99.90;;;;;;5084922;28;20290;-61
2020/12/11 06:41:27;;;;;;;49.35;21.63;;;-0.50;99.90;;;;;;5083267;28;20206;-61
2020/12/11 06:44:12;;;;;;;50.72;24.85;;;-0.40;99.90;;;;;;5078542;28;20234;-61
2020/12/11 06:46:39;;;;;;;46.55;22.95;;;-0.50;99.90;;;;;;5079455;28;20198;-61
2020/12/11 06:49:13;;;;;;;59.25;28.20;;;-0.40;99.90;;;;;;5083453;28;20203;-62
2020/12/11 06:51:46;;;;;;;59.40;24.00;;;-0.50;99.90;;;;;;5086511;28;20366;-62
2020/12/11 06:54:33;;;;;;;64.32;29.30;;;0.10;99.90;;;;;;5078784;28;20527;-63
2020/12/11 06:57:01;;;;;;;67.18;26.92;;;0.00;99.90;;;;;;5077731;28;20203;-62
2020/12/11 06:59:33;;;;;;;58.22;26.70;;;-0.30;99.90;;;;;;5077479;28;20203;-62
2020/12/11 07:02:03;;;;;;;49.55;27.23;;;-0.30;99.90;;;;;;5054508;28;20206;-60
2020/12/11 07:04:40;;;;;;;62.42;28.83;;;-0.30;99.90;;;;;;5022752;28;20253;-62
2020/12/11 07:07:07;;;;;;;66.07;27.35;;;-0.30;99.90;;;;;;5033881;28;20209;-61
2020/12/11 07:09:44;;;;;;;59.42;29.92;;;-0.20;99.90;;;;;;5075130;28;20493;-61
2020/12/11 07:12:11;;;;;;;53.75;27.20;;;-0.10;99.90;;;;;;5082477;28;20560;-62
2020/12/11 07:14:47;;;;;;;55.00;26.52;;;0.60;99.90;;;;;;5081186;28;20261;-62
2020/12/11 07:17:28;;;;;;;56.75;28.95;;;-0.20;99.90;;;;;;5083211;28;20207;-63
2020/12/11 07:19:56;;;;;;;58.60;30.13;;;-0.20;99.90;;;;;;5091381;28;20398;-61
2020/12/11 07:22:23;;;;;;;57.05;28.50;;;-0.10;99.90;;;;;;5095371;28;20202;-62
2020/12/11 07:24:50;;;;;;;61.88;29.65;;;-0.20;99.90;;;;;;5084670;28;20293;-62
2020/12/11 07:27:16;;;;;;;64.82;27.83;;;-0.10;99.90;;;;;;5095937;28;20202;-63
2020/12/11 07:29:50;;;;;;;58.38;27.08;;;-0.10;99.90;;;;;;5088457;28;20234;-62
2020/12/11 07:32:21;;;;;;;62.97;31.00;;;-0.20;99.90;;;;;;5087404;28;20203;-62
2020/12/11 07:34:48;;;;;;;63.15;30.13;;;-0.20;99.90;;;;;;5086860;28;20252;-63
2020/12/11 07:37:15;;;;;;;75.10;33.47;;;-0.20;99.90;;;;;;5085139;28;20218;-64
2020/12/11 07:39:42;;;;;;;67.65;29.17;;;-0.10;99.90;;;;;;5091963;28;20214;-63
2020/12/11 07:42:09;;;;;;;64.13;30.05;;;0.00;99.90;;;;;;5085883;28;20388;-62
2020/12/11 07:44:38;;;;;;;66.47;32.50;;;0.00;99.90;;;;;;5095327;28;20237;-61
2020/12/11 07:47:09;;;;;;;64.72;32.28;;;0.10;99.90;;;;;;5098175;28;20381;-61
2020/12/11 07:49:41;;;;;;;62.70;31.08;;;0.20;99.90;;;;;;5097190;28;20232;-62
2020/12/11 07:52:08;;;;;;;69.47;28.17;;;0.40;99.90;;;;;;5083175;28;20208;-62
2020/12/11 07:54:43;;;;;;;67.43;31.77;;;0.90;99.90;;;;;;5098595;28;21315;-62
2020/12/11 07:57:15;;;;;;;69.18;30.20;;;0.50;99.90;;;;;;5102090;28;20515;-63
2020/12/11 07:59:42;;;;;;;69.40;32.15;;;0.40;99.90;;;;;;5091065;28;20266;-61
2020/12/11 08:02:12;;;;;;;54.40;29.50;;;0.90;99.90;;;;;;5090338;28;20217;-62
2020/12/11 08:04:38;;;;;;;57.58;31.20;;;0.40;99.90;;;;;;5100137;28;20229;-62
2020/12/11 08:07:05;;;;;;;60.85;29.45;;;0.40;99.90;;;;;;5101357;28;20265;-63
2020/12/11 08:09:33;;;;;;;68.60;34.53;;;0.70;99.90;;;;;;5087613;28;20246;-62
2020/12/11 08:12:15;;;;;;;64.15;30.25;;;0.40;99.90;;;;;;5084182;28;20274;-61
2020/12/11 08:14:42;;;;;;;57.60;28.27;;;0.50;99.90;;;;;;5089656;28;20688;-63
2020/12/11 08:17:13;;;;;;;63.80;28.88;;;0.60;99.90;;;;;;5096699;28;20206;-63
2020/12/11 08:19:42;;;;;;;64.35;31.17;;;1.10;99.90;;;;;;5085958;28;20603;-62
2020/12/11 08:22:16;;;;;;;63.70;28.67;;;0.60;99.90;;;;;;5091783;28;20250;-63
2020/12/11 08:24:44;;;;;;;52.55;26.73;;;0.60;99.90;;;;;;5081801;28;20645;-63
2020/12/11 08:27:25;;;;;;;62.58;30.15;;;1.60;99.90;;;;;;5094481;28;20210;-64
2020/12/11 08:30:03;;;;;;;61.20;31.73;;;1.00;99.90;;;;;;5086272;28;20210;-64
2020/12/11 08:32:31;;;;;;;64.32;32.70;;;1.20;99.90;;;;;;5088601;28;20205;-63
2020/12/11 08:34:59;;;;;;;55.88;27.58;;;1.10;99.90;;;;;;5089252;28;20624;-65
2020/12/11 08:37:25;;;;;;;68.18;31.55;;;0.90;99.90;;;;;;5087358;28;20420;-61
2020/12/11 08:40:05;;;;;;;46.55;27.60;;;0.90;99.90;;;;;;5099521;28;20390;-63
2020/12/11 08:42:55;;;;;;;67.13;30.25;;;1.10;99.90;;;;;;5082181;28;20450;-63
2020/12/11 08:45:31;;;;;;;75.10;29.67;;;1.10;99.90;;;;;;5088226;28;20227;-62
2020/12/11 08:50:49;;;;;;;59.72;28.60;;;1.00;99.90;;;;;;5094340;28;20206;-62
2020/12/11 08:53:18;;;;;;;50.13;25.00;;;1.10;99.90;;;;;;5091740;28;20210;-64
2020/12/11 08:55:45;;;;;;;48.28;27.13;;;1.00;99.90;;;;;;5086906;28;20408;-62
2020/12/11 08:58:12;;;;;;;52.92;25.20;;;1.00;99.90;;;;;;5095313;28;20270;-64
2020/12/11 09:00:43;;;;;;;73.78;28.58;;;0.90;99.90;;;;;;5090938;28;20205;-62
2020/12/11 09:03:11;;;;;;;51.38;27.30;;;0.90;99.90;;;;;;5095710;28;20237;-62
2020/12/11 09:05:40;;;;;;;57.42;28.23;;;0.90;99.90;;;;;;5081384;28;20525;-64
2020/12/11 09:08:07;;;;;;;61.85;30.77;;;0.80;99.90;;;;;;5096695;28;20210;-67
2020/12/11 09:10:34;;;;;;;55.90;27.38;;;0.90;99.90;;;;;;5087872;28;20213;-64
2020/12/11 09:13:01;;;;;;;43.72;23.67;;;0.80;99.90;;;;;;5099238;28;20206;-65
2020/12/11 09:15:29;;;;;;;46.05;24.92;;;0.80;99.90;;;;;;5082208;28;20305;-64
2020/12/11 09:17:56;;;;;;;61.83;29.25;;;0.90;99.90;;;;;;5090112;28;20206;-63
2020/12/11 09:20:23;;;;;;;53.85;30.45;;;0.80;99.90;;;;;;5091660;28;20266;-63
2020/12/11 09:22:50;;;;;;;51.80;23.23;;;0.90;99.90;;;;;;5089199;28;20238;-63
2020/12/11 09:25:18;;;;;;;61.03;29.70;;;0.90;99.90;;;;;;5086032;28;20318;-65
2020/12/11 09:27:52;;;;;;;49.42;26.20;;;0.80;99.90;;;;;;5098406;28;20209;-63
2020/12/11 09:35:26;;;;;;;52.53;23.13;;;1.00;99.90;;;;;;5089938;28;20212;-64
2020/12/11 09:37:56;;;;;;;38.47;24.95;;;1.10;99.90;;;;;;5085716;28;20210;-65
2020/12/11 09:40:41;;;;;;;49.72;23.52;;;1.20;99.90;;;;;;5078993;28;20385;-63
2020/12/11 09:48:56;;;;;;;48.05;22.92;;;1.40;99.90;;;;;;5092383;28;20205;-63
2020/12/11 09:54:05;;;;;;;50.80;30.52;;;1.50;99.90;;;;;;5095851;28;20347;-64
2020/12/11 09:56:34;;;;;;;42.83;20.58;;;1.60;99.90;;;;;;5083077;28;20282;-64
2020/12/11 09:59:12;;;;;;;60.50;25.23;;;1.50;99.90;;;;;;5081809;28;20206;-66
2020/12/11 10:04:08;;;;;;;46.78;25.65;;;1.60;99.90;;;;;;5090717;28;20265;-65
2020/12/11 10:06:36;;;;;;;70.30;26.10;;;1.60;99.90;;;;;;5097553;28;20518;-65
2020/12/11 10:17:03;;;;;;;46.75;27.23;;;1.80;99.90;;;;;;5066856;28;20193;-67
2020/12/11 10:19:30;;;;;;;54.83;26.13;;;1.70;99.90;;;;;;5052909;28;20693;-69
2020/12/11 10:21:58;;;;;;;47.50;22.42;;;1.60;99.90;;;;;;5087655;28;20212;-69
2020/12/11 10:24:24;;;;;;;49.80;23.05;;;1.80;99.90;;;;;;5092329;28;20533;-67
2020/12/11 10:26:51;;;;;;;56.13;23.00;;;2.00;99.90;;;;;;5084265;28;20210;-70
2020/12/11 10:29:18;;;;;;;46.30;23.42;;;1.90;99.90;;;;;;5089563;28;20618;-69
2020/12/11 10:31:45;;;;;;;34.13;20.60;;;2.10;99.90;;;;;;5095279;28;20233;-70
2020/12/11 10:34:13;;;;;;;37.10;21.05;;;2.10;99.90;;;;;;5083475;28;20479;-69
2020/12/11 10:36:40;;;;;;;47.38;23.38;;;2.20;99.90;;;;;;5091423;28;20257;-67
2020/12/11 10:39:08;;;;;;;36.20;18.77;;;2.10;99.90;;;;;;5086345;28;20317;-69
2020/12/11 10:41:39;;;;;;;36.22;18.85;;;2.20;99.90;;;;;;5082854;28;20209;-70
2020/12/11 10:44:06;;;;;;;34.80;21.73;;;2.20;99.90;;;;;;5086804;28;20219;-69
2020/12/11 10:46:32;;;;;;;40.15;21.45;;;2.30;99.90;;;;;;5094031;28;20276;-67
2020/12/11 10:48:59;;;;;;;37.40;19.98;;;2.30;99.90;;;;;;5098472;28;20218;-67
2020/12/11 10:51:26;;;;;;;41.25;17.63;;;2.20;99.90;;;;;;5085740;28;20202;-69
2020/12/11 10:53:52;;;;;;;40.83;23.58;;;2.10;99.90;;;;;;5097935;28;20633;-70
2020/12/11 10:56:19;;;;;;;34.17;19.95;;;2.30;99.90;;;;;;5096903;28;20209;-69
2020/12/11 10:58:49;;;;;;;37.90;21.17;;;2.30;99.90;;;;;;5098112;28;20198;-69
2020/12/11 11:01:15;;;;;;;37.22;20.77;;;2.30;99.90;;;;;;5087412;28;20507;-68
2020/12/11 11:03:42;;;;;;;35.75;19.23;;;2.30;99.90;;;;;;5081185;28;20272;-70
2020/12/11 11:11:06;;;;;;;44.38;21.85;;;2.20;99.90;;;;;;5081472;28;20428;-68
2020/12/11 11:13:54;;;;;;;38.13;20.77;;;2.30;99.90;;;;;;5083983;28;20209;-64
2020/12/11 11:16:48;;;;;;;38.05;21.08;;;2.40;99.90;;;;;;5090138;28;20227;-66
2020/12/11 11:27:53;;;;;;;32.22;19.83;;;2.60;99.90;;;;;;5095461;28;20552;-70
2020/12/11 11:30:21;;;;;;;27.60;17.27;;;2.80;99.90;;;;;;5081082;28;20228;-70
2020/12/11 11:32:51;;;;;;;34.88;20.55;;;2.80;99.90;;;;;;5100728;28;20678;-69
2020/12/11 11:35:19;;;;;;;36.17;16.00;;;2.70;99.90;;;;;;5099794;28;20207;-66
2020/12/11 11:37:47;;;;;;;37.15;18.35;;;2.90;99.90;;;;;;5086736;28;20216;-69
2020/12/11 11:40:15;;;;;;;30.20;18.45;;;2.80;99.90;;;;;;5101152;28;20206;-67
2020/12/11 11:42:42;;;;;;;35.33;17.90;;;3.00;99.90;;;;;;5087776;28;20218;-70
2020/12/11 11:45:12;;;;;;;22.98;14.77;;;3.10;99.90;;;;;;5097259;28;20254;-66
2020/12/11 11:47:41;;;;;;;24.73;16.02;;;3.00;99.90;;;;;;5088968;28;20430;-69
2020/12/11 11:52:44;;;;;;;24.05;13.40;;;3.10;99.90;;;;;;5099740;28;20285;-70
2020/12/11 11:55:11;;;;;;;37.95;19.27;;;3.00;99.90;;;;;;5088215;28;20208;-70
2020/12/11 11:57:39;;;;;;;24.52;14.55;;;3.00;99.90;;;;;;5097665;28;20249;-66
2020/12/11 12:00:08;;;;;;;19.55;12.70;;;3.10;99.90;;;;;;5090968;28;20278;-67
2020/12/11 12:02:35;;;;;;;27.48;13.52;;;3.20;99.90;;;;;;5097752;28;20206;-69
2020/12/11 12:05:04;;;;;;;29.75;17.98;;;3.10;99.90;;;;;;5093776;28;20235;-72
2020/12/11 12:07:32;;;;;;;33.42;16.38;;;3.10;99.90;;;;;;5095310;28;20267;-70
2020/12/11 12:09:59;;;;;;;30.80;15.50;;;3.20;99.90;;;;;;5097167;28;20547;-68
2020/12/11 12:12:25;;;;;;;32.20;15.23;;;3.20;99.90;;;;;;5088572;28;20196;-70
2020/12/11 12:14:52;;;;;;;31.05;17.90;;;3.30;99.90;;;;;;5094885;28;20428;-71
2020/12/11 12:17:26;;;;;;;33.05;18.00;;;3.20;99.90;;;;;;5096103;28;20208;-69
2020/12/11 12:19:56;;;;;;;28.00;15.50;;;3.10;99.90;;;;;;5089875;28;20259;-68
2020/12/11 12:23:08;;;;;;;27.92;17.13;;;3.30;99.90;;;;;;5080660;28;20696;-68
2020/12/11 12:28:21;;;;;;;21.38;14.77;;;3.30;99.90;;;;;;5094537;28;20212;-71
2020/12/11 12:30:43;;;;;;;32.20;17.85;;;3.20;99.90;;;;;;5087574;28;20233;-70
2020/12/11 12:39:07;;;;;;;30.30;15.93;;;3.40;99.90;;;;;;5114870;28;20199;-70
2020/12/11 12:44:19;;;;;;;23.30;14.40;;;3.50;99.90;;;;;;5089825;28;20302;-70
2020/12/11 12:46:46;;;;;;;29.48;14.25;;;3.60;99.90;;;;;;5093694;28;20243;-68
2020/12/11 12:49:13;;;;;;;31.10;13.38;;;3.50;99.90;;;;;;5099598;28;20410;-69
2020/12/11 12:51:40;;;;;;;26.23;15.27;;;3.30;99.90;;;;;;5095351;28;20480;-70
2020/12/11 12:54:07;;;;;;;23.20;12.15;;;3.30;99.90;;;;;;5093188;28;20372;-69
2020/12/11 12:56:38;;;;;;;15.55;11.85;;;3.30;99.90;;;;;;5099297;28;20214;-67
2020/12/11 12:59:24;;;;;;;21.27;11.75;;;3.30;99.90;;;;;;5090341;28;20246;-68
2020/12/11 13:07:03;;;;;;;19.48;13.05;;;3.30;99.90;;;;;;5096680;28;20240;-70
2020/12/11 13:09:30;;;;;;;21.15;13.48;;;3.30;99.90;;;;;;5087996;28;20209;-68
2020/12/11 13:11:57;;;;;;;24.35;14.65;;;3.20;99.90;;;;;;5086640;28;20237;-69
2020/12/11 13:14:25;;;;;;;26.88;11.65;;;3.30;99.90;;;;;;5086669;28;20219;-67
2020/12/11 13:16:51;;;;;;;17.02;10.98;;;3.30;99.90;;;;;;5090873;28;20239;-66
2020/12/11 13:19:21;;;;;;;24.05;14.35;;;3.10;99.90;;;;;;5095964;28;20277;-69
2020/12/11 13:22:01;;;;;;;23.67;11.82;;;3.10;99.90;;;;;;5096816;28;20203;-68
2020/12/11 13:27:26;;;;;;;22.20;13.07;;;3.20;99.90;;;;;;5097096;28;20221;-67
2020/12/11 13:29:53;;;;;;;18.83;12.05;;;3.00;99.90;;;;;;5090152;28;20212;-69
2020/12/11 13:32:20;;;;;;;24.08;11.73;;;3.10;99.90;;;;;;5098783;28;20230;-67
2020/12/11 13:34:48;;;;;;;18.67;11.13;;;3.10;99.90;;;;;;5097138;28;20268;-67
2020/12/11 13:48:36;;;;;;;13.07;9.10;;;3.40;99.90;;;;;;5105571;28;20390;-64
2020/12/11 13:51:02;;;;;;;18.05;10.98;;;3.00;99.90;;;;;;5097922;28;20272;-64
2020/12/11 13:53:29;;;;;;;18.63;11.27;;;3.00;99.90;;;;;;5098060;28;20230;-66